Time;durP1;ratioP1;P1;durP2;ratioP2;P2;SDS_P1;SDS_P2;PMS_P1;PMS_P2;Temp;Humidity;BMP_temperature;BMP_pressure;BME280_temperature;BME280_humidity;BME280_pressure;Samples;Min_cycle;Max_cycle;Signal;HPM_P1;HPM_P2
2022/12/10 00:02:06;;;;;;;;;53.50;44.50;;;;;0.22;76.28;99775.44;5071259;28;45583;-90
2022/12/10 00:04:31;;;;;;;;;62.50;48.25;;;;;1.14;76.43;99948.81;5040870;28;45387;-90
2022/12/10 00:06:57;;;;;;;;;53.75;44.00;;;;;1.23;77.29;99935.88;5041814;28;45198;-90
2022/12/10 00:09:25;;;;;;;;;44.75;35.00;;;;;1.14;77.31;99934.06;5066255;28;45344;-90
2022/12/10 00:11:51;;;;;;;;;60.00;45.50;;;;;-0.48;76.93;99663.94;5066382;28;45462;-91
2022/12/10 00:14:20;;;;;;;;;63.50;47.00;;;;;0.01;77.34;99736.25;5058238;28;45359;-91
2022/12/10 00:16:45;;;;;;;;;49.75;42.50;;;;;0.71;76.96;99853.03;5056660;28;45320;-91
2022/12/10 00:19:16;;;;;;;;;47.25;38.75;;;;;-0.36;77.24;99669.25;5056975;28;45543;-90
2022/12/10 00:21:58;;;;;;;;;;;;;;;;;;;;;
2022/12/10 00:24:27;;;;;;;;;51.75;39.00;;;;;0.64;76.93;99862.53;5063602;28;72942;-90
2022/12/10 00:26:55;;;;;;;;;50.00;40.00;;;;;-0.17;76.40;99721.38;5067171;28;45543;-88
2022/12/10 00:29:22;;;;;;;;;52.00;44.25;;;;;-0.47;76.92;99660.44;5069503;28;45659;-89
2022/12/10 00:31:48;;;;;;;;;52.75;44.50;;;;;0.34;76.73;99813.69;5078431;28;45390;-90
2022/12/10 00:34:13;;;;;;;;;55.25;45.00;;;;;0.22;77.08;99783.25;5064873;28;45358;-89
2022/12/10 00:36:48;;;;;;;;;45.75;40.00;;;;;0.76;76.38;99864.38;5060207;28;45371;-90
2022/12/10 00:39:19;;;;;;;;;45.00;41.75;;;;;1.24;76.45;99953.25;5061792;28;45243;-89
2022/12/10 00:41:45;;;;;;;;;51.25;39.25;;;;;1.38;77.00;99968.97;5044486;28;47011;-90
2022/12/10 00:44:18;;;;;;;;;51.00;42.25;;;;;1.60;76.93;100036.00;5079839;28;45670;-90
2022/12/10 00:46:44;;;;;;;;;49.25;42.00;;;;;0.25;77.19;99801.47;5083362;28;45458;-89
2022/12/10 00:49:13;;;;;;;;;56.25;47.00;;;;;-0.66;76.81;99655.06;5062322;28;45594;-90
2022/12/10 00:51:39;;;;;;;;;45.50;42.50;;;;;1.57;76.42;100022.09;5083154;28;47503;-90
2022/12/10 00:54:14;;;;;;;;;40.50;32.25;;;;;-0.31;76.75;99711.69;5090964;28;45272;-90
2022/12/10 00:56:47;;;;;;;;;46.50;40.50;;;;;0.25;76.98;99800.59;5067051;28;45190;-90
2022/12/10 00:59:15;;;;;;;;;49.00;41.50;;;;;0.99;76.61;99949.56;5066878;28;45298;-90
2022/12/10 01:01:42;;;;;;;;;56.00;46.25;;;;;0.61;76.98;99853.78;5056953;28;47752;-90
2022/12/10 01:04:18;;;;;;;;;54.50;40.25;;;;;-0.05;76.71;99742.25;5058618;28;45432;-89
2022/12/10 01:06:55;;;;;;;;;61.50;46.25;;;;;0.03;76.79;99771.81;5064647;28;45354;-90
2022/12/10 01:09:28;;;;;;;;;60.75;48.75;;;;;1.49;76.89;100009.00;5041533;28;45499;-90
2022/12/10 01:12:03;;;;;;;;;60.00;47.75;;;;;1.74;76.78;100056.09;5040248;28;47277;-89
2022/12/10 01:14:35;;;;;;;;;57.25;42.25;;;;;0.93;76.72;99889.63;5060359;28;45370;-90
2022/12/10 01:17:05;;;;;;;;;60.50;46.50;;;;;-0.36;76.31;99690.00;5060071;28;45355;-90
2022/12/10 01:19:38;;;;;;;;;50.25;43.25;;;;;1.82;77.22;100061.34;5068503;28;45363;-90
2022/12/10 01:22:04;;;;;;;;;54.25;42.75;;;;;-0.60;77.05;99639.56;5068386;28;46794;-92
2022/12/10 01:24:40;;;;;;;;;57.00;44.25;;;;;1.88;76.45;100054.47;5075702;28;45638;-91
2022/12/10 01:27:08;;;;;;;;;52.25;41.75;;;;;-0.26;77.08;99678.88;5056927;28;45224;-92
2022/12/10 01:29:40;;;;;;;;;49.00;39.25;;;;;1.10;77.11;99926.22;5065757;28;45289;-93
2022/12/10 01:32:06;;;;;;;;;66.25;46.75;;;;;0.55;77.09;99822.53;5068247;28;46803;-92
2022/12/10 01:34:36;;;;;;;;;60.50;45.25;;;;;1.99;76.89;100045.84;5069337;28;45229;-93
2022/12/10 01:37:04;;;;;;;;;56.50;46.00;;;;;1.87;76.38;100052.72;5084838;28;45429;-93
2022/12/10 01:39:30;;;;;;;;;54.00;42.50;;;;;1.61;76.68;100005.63;5076311;28;44953;-92
2022/12/10 01:42:01;;;;;;;;;53.75;42.75;;;;;0.65;76.58;99830.47;5092010;28;45563;-94
2022/12/10 01:44:30;;;;;;;;;61.25;46.25;;;;;2.05;77.54;100067.63;5074259;28;44817;-92
2022/12/10 01:47:03;;;;;;;;;54.75;44.75;;;;;2.06;76.87;100065.88;5071837;28;45366;-91
2022/12/10 01:49:52;;;;;;;;;61.50;45.00;;;;;0.59;76.67;99819.97;5076885;28;44865;-92
2022/12/10 01:52:21;;;;;;;;;61.00;43.25;;;;;-0.03;76.60;99727.56;5056986;28;45657;-90
2022/12/10 01:55:18;;;;;;;;;;;;;;;;;;;;;
2022/12/10 01:57:50;;;;;;;;;61.25;46.00;;;;;1.29;76.65;99955.88;5068929;28;67981;-92
2022/12/10 02:00:21;;;;;;;;;52.75;43.00;;;;;1.25;77.22;99962.81;5066426;28;45283;-93
2022/12/10 02:03:02;;;;;;;;;53.75;43.50;;;;;0.74;77.22;99881.66;5086706;28;47549;-92
2022/12/10 02:05:41;;;;;;;;;53.00;44.00;;;;;0.85;76.97;99876.56;5067844;28;45329;-91
2022/12/10 02:08:15;;;;;;;;;52.50;43.50;;;;;2.11;77.65;100091.13;5066732;28;45278;-91
2022/12/10 02:11:01;;;;;;;;;55.00;43.75;;;;;2.11;76.50;100083.31;5066597;28;45319;-91
2022/12/10 02:13:42;;;;;;;;;64.50;49.25;;;;;1.66;76.85;100010.88;5066070;28;45303;-91
2022/12/10 02:16:20;;;;;;;;;55.00;43.25;;;;;0.26;76.94;99779.81;5064650;28;45364;-93
2022/12/10 02:19:07;;;;;;;;;52.00;43.50;;;;;0.28;77.02;99787.63;5067083;28;45302;-91
2022/12/10 02:21:44;;;;;;;;;57.25;45.00;;;;;2.10;76.94;100107.63;5081423;28;45298;-92
2022/12/10 02:24:27;;;;;;;;;54.75;43.00;;;;;-0.04;77.24;99739.69;5069353;28;45327;-91
2022/12/10 02:27:19;;;;;;;;;50.25;42.75;;;;;1.23;76.47;99954.09;5069618;28;45302;-92
2022/12/10 02:29:48;;;;;;;;;50.25;42.25;;;;;2.04;76.93;100088.47;5079152;28;45415;-92
2022/12/10 02:32:37;;;;;;;;;49.00;41.50;;;;;0.16;76.80;99791.00;5075170;28;45236;-92
2022/12/10 02:35:14;;;;;;;;;53.75;42.25;;;;;0.89;77.21;99892.19;5070483;28;47405;-91
2022/12/10 02:38:10;;;;;;;;;;;;;;;;;;;;;
2022/12/10 02:40:44;;;;;;;;;56.50;45.25;;;;;0.91;76.87;99914.78;5065383;28;68913;-91
2022/12/10 02:43:15;;;;;;;;;37.75;30.00;;;;;0.91;76.78;99925.19;5071147;28;45215;-91
2022/12/10 02:45:43;;;;;;;;;57.75;45.00;;;;;1.68;77.18;100049.09;5067399;28;46553;-91
2022/12/10 02:48:19;;;;;;;;;48.25;39.00;;;;;0.97;77.00;99930.44;5069784;28;45334;-90
2022/12/10 02:50:50;;;;;;;;;49.75;42.50;;;;;0.97;77.11;99920.94;5065737;28;45125;-92
2022/12/10 02:53:16;;;;;;;;;42.25;36.50;;;;;1.89;77.40;100087.47;5082782;28;45593;-92
2022/12/10 02:56:10;;;;;;;;;55.25;43.25;;;;;0.62;76.99;99855.56;5068210;28;46541;-91
2022/12/10 02:58:46;;;;;;;;;41.75;35.75;;;;;0.67;77.61;99877.28;5065502;28;45265;-92
2022/12/10 03:01:35;;;;;;;;;57.00;39.75;;;;;-0.15;77.39;99730.03;5065873;28;45420;-92
2022/12/10 03:04:24;;;;;;;;;50.75;38.50;;;;;1.66;77.08;100058.63;5064607;28;45670;-92
2022/12/10 03:07:09;;;;;;;;;44.50;38.00;;;;;0.09;76.82;99765.78;5068097;28;45490;-91
2022/12/10 03:09:43;;;;;;;;;49.50;39.25;;;;;0.57;77.13;99846.84;5083040;28;45307;-91
2022/12/10 03:12:27;;;;;;;;;58.00;41.75;;;;;0.83;77.29;99909.50;5059318;28;45224;-92
2022/12/10 03:15:09;;;;;;;;;48.50;38.00;;;;;0.76;77.27;99881.69;5059363;28;45563;-91
2022/12/10 03:17:41;;;;;;;;;54.75;41.50;;;;;1.40;77.14;99994.19;5085930;28;45489;-93
2022/12/10 03:20:25;;;;;;;;;44.00;38.00;;;;;0.92;77.35;99911.31;5061526;28;45356;-93
2022/12/10 03:22:54;;;;;;;;;43.75;39.50;;;;;0.28;77.33;99798.91;5078144;28;45368;-92
2022/12/10 03:25:28;;;;;;;;;45.00;39.50;;;;;0.55;76.84;99848.53;5064745;28;45626;-91
2022/12/10 03:27:58;;;;;;;;;48.50;43.00;;;;;2.10;77.37;100111.97;5069601;28;47248;-91
2022/12/10 03:30:26;;;;;;;;;43.50;37.00;;;;;0.63;77.68;99865.09;5053218;28;45218;-91
2022/12/10 03:32:52;;;;;;;;;48.25;38.25;;;;;0.85;77.28;99924.28;5067287;28;45555;-91
2022/12/10 03:35:27;;;;;;;;;37.00;32.25;;;;;2.17;76.98;100129.44;5071191;28;44982;-91
2022/12/10 03:37:56;;;;;;;;;47.75;40.25;;;;;1.29;77.84;99989.72;5072378;28;45417;-92
2022/12/10 03:40:28;;;;;;;;;50.75;39.25;;;;;0.32;76.67;99820.63;5066209;28;45244;-92
2022/12/10 03:42:54;;;;;;;;;44.75;39.75;;;;;0.37;76.95;99824.13;5082297;28;45328;-92
2022/12/10 03:45:19;;;;;;;;;39.25;37.25;;;;;2.15;76.71;100131.13;5087074;28;44904;-89
2022/12/10 03:47:45;;;;;;;;;59.00;45.25;;;;;0.77;77.73;99888.63;5084337;28;47011;-90
2022/12/10 03:50:15;;;;;;;;;50.75;42.00;;;;;0.36;77.29;99827.56;5068783;28;45425;-89
2022/12/10 03:52:41;;;;;;;;;41.25;33.75;;;;;0.68;76.92;99895.53;5064215;28;45366;-89
2022/12/10 03:55:07;;;;;;;;;40.00;35.25;;;;;2.17;77.35;100126.81;5085286;28;44842;-90
2022/12/10 03:57:34;;;;;;;;;42.00;36.75;;;;;1.69;77.45;100056.06;5077335;28;46879;-90
2022/12/10 03:59:59;;;;;;;;;29.75;26.75;;;;;0.75;77.23;99899.03;5036909;28;45376;-90
2022/12/10 04:02:28;;;;;;;;;43.50;36.75;;;;;2.15;77.33;100131.13;5036201;28;45462;-90
2022/12/10 04:04:57;;;;;;;;;44.25;36.75;;;;;1.98;77.76;100106.69;5040128;28;45411;-92
2022/12/10 04:07:25;;;;;;;;;45.75;37.25;;;;;0.04;77.09;99786.53;5039344;28;47200;-90
2022/12/10 04:09:52;;;;;;;;;36.75;30.50;;;;;2.18;77.68;100149.41;5059975;28;45474;-91
2022/12/10 04:12:26;;;;;;;;;41.75;33.50;;;;;1.84;77.40;100090.91;5051087;28;45356;-90
2022/12/10 04:17:36;;;;;;;;;51.00;38.00;;;;;1.65;77.11;100056.03;5064893;28;45383;-91
2022/12/10 04:20:06;;;;;;;;;50.75;38.25;;;;;0.40;77.29;99852.75;5053851;28;45249;-91
2022/12/10 04:28:45;;;;;;;;;38.00;33.75;;;;;2.19;77.57;100132.03;5064801;28;45440;-90
2022/12/10 04:31:10;;;;;;;;;37.25;30.25;;;;;2.21;77.38;100151.16;5039850;28;45503;-88
2022/12/10 04:33:36;;;;;;;;;37.50;29.00;;;;;2.18;76.78;100143.31;5038907;28;45380;-88
2022/12/10 04:36:11;;;;;;;;;35.50;30.75;;;;;1.37;77.38;100019.34;5039259;28;45473;-91
2022/12/10 04:38:37;;;;;;;;;32.75;30.00;;;;;2.16;76.62;100151.13;5055237;28;47674;-89
2022/12/10 04:41:15;;;;;;;;;33.50;25.50;;;;;0.51;76.80;99874.53;5060016;28;45490;-90
2022/12/10 04:43:42;;;;;;;;;33.25;26.25;;;;;0.28;77.22;99834.44;5060331;28;45219;-89
2022/12/10 04:46:08;;;;;;;;;33.00;29.25;;;;;0.82;76.79;99932.06;5042514;28;45444;-90
2022/12/10 04:48:36;;;;;;;;;32.25;28.75;;;;;0.38;77.00;99861.38;5043933;28;47153;-91
2022/12/10 04:51:02;;;;;;;;;32.75;29.75;;;;;0.88;77.12;99957.25;5053787;28;45291;-90
2022/12/10 04:53:31;;;;;;;;;28.00;23.75;;;;;2.16;76.92;100178.94;5074049;28;45171;-89
2022/12/10 04:55:56;;;;;;;;;37.00;27.50;;;;;0.96;77.30;99949.53;5071056;28;45500;-90
2022/12/10 04:58:34;;;;;;;;;;;;;;;;;;;;;
2022/12/10 05:01:12;;;;;;;;;29.50;24.00;;;;;2.11;76.92;100169.34;5063788;28;71693;-90
2022/12/10 05:03:43;;;;;;;;;29.50;23.00;;;;;2.10;76.60;100154.56;5062260;28;45329;-90
2022/12/10 05:06:14;;;;;;;;;29.50;26.50;;;;;2.08;76.50;100156.28;5047813;28;44794;-90
2022/12/10 05:08:41;;;;;;;;;36.75;28.75;;;;;-0.15;76.09;99772.50;5059499;28;47022;-90
2022/12/10 05:11:12;;;;;;;;;35.00;28.25;;;;;0.79;76.75;99947.66;5062260;28;45425;-90
2022/12/10 05:13:41;;;;;;;;;34.50;29.25;;;;;2.06;76.76;100171.03;5060045;28;45437;-90
2022/12/10 05:16:19;;;;;;;;;33.75;25.25;;;;;-0.12;76.18;99792.41;5062187;28;45360;-90
2022/12/10 05:18:58;;;;;;;;;28.75;25.00;;;;;0.65;76.75;99907.59;5059798;28;46929;-90
2022/12/10 05:24:34;;;;;;;;;29.25;23.00;;;;;0.69;77.06;99904.19;5066580;28;45442;-89
2022/12/10 05:27:01;;;;;;;;;28.50;25.00;;;;;0.21;76.44;99848.22;5085940;28;45391;-89
2022/12/10 05:29:34;;;;;;;;;30.25;25.25;;;;;1.78;76.77;100100.44;5085409;28;47100;-91
2022/12/10 05:32:05;;;;;;;;;27.00;21.00;;;;;0.83;76.51;99941.59;5068773;28;44784;-90
2022/12/10 05:35:03;;;;;;;;;36.00;23.00;;;;;0.38;77.02;99870.06;5075404;28;45251;-91
2022/12/10 05:37:36;;;;;;;;;29.25;26.75;;;;;0.31;76.79;99857.88;5061074;28;45383;-89
2022/12/10 05:40:09;;;;;;;;;24.75;23.00;;;;;0.07;77.05;99814.28;5086971;28;48077;-90
2022/12/10 05:42:42;;;;;;;;;20.25;18.75;;;;;0.06;75.93;99822.94;5067315;28;45379;-90
2022/12/10 05:45:17;;;;;;;;;29.25;26.50;;;;;1.71;76.71;100102.97;5065509;28;45376;-91
2022/12/10 05:48:06;;;;;;;;;21.25;14.25;;;;;1.73;76.25;100096.03;5083473;28;45559;-91
2022/12/10 05:50:33;;;;;;;;;24.00;22.75;;;;;2.20;76.22;100191.13;5068754;28;46331;-90
2022/12/10 05:53:17;;;;;;;;;21.00;17.50;;;;;1.88;76.62;100137.88;5068960;28;45445;-90
2022/12/10 05:55:44;;;;;;;;;18.00;17.75;;;;;1.19;76.19;100030.44;5047683;28;45402;-92
2022/12/10 05:58:09;;;;;;;;;30.25;25.25;;;;;1.74;76.26;100108.22;5059039;28;45216;-91
2022/12/10 06:00:40;;;;;;;;;27.75;23.75;;;;;-0.15;76.94;99787.19;5060048;28;47015;-88
2022/12/10 06:03:06;;;;;;;;;32.75;28.25;;;;;1.83;75.84;100121.31;5079015;28;45442;-90
2022/12/10 06:05:39;;;;;;;;;28.75;27.25;;;;;2.21;76.65;100204.19;5063822;28;45358;-90
2022/12/10 06:08:18;;;;;;;;;33.75;25.50;;;;;0.84;76.58;99961.56;5047007;28;45604;-89
2022/12/10 06:10:49;;;;;;;;;36.25;28.50;;;;;1.77;76.93;100131.69;5060196;28;46703;-90
2022/12/10 06:13:17;;;;;;;;;28.25;25.00;;;;;1.23;76.54;100038.31;5047078;28;45353;-90
2022/12/10 06:15:43;;;;;;;;;23.00;21.50;;;;;1.51;76.35;100075.00;5055229;28;45285;-90
2022/12/10 06:18:15;;;;;;;;;32.00;25.00;;;;;2.26;76.75;100206.84;5085168;27;45193;-90
2022/12/10 06:20:43;;;;;;;;;27.25;24.00;;;;;1.46;76.57;100071.50;5078771;28;46741;-91
2022/12/10 06:23:19;;;;;;;;;33.75;25.25;;;;;0.43;76.40;99916.94;5082603;28;45407;-90
2022/12/10 06:25:48;;;;;;;;;25.25;22.25;;;;;2.24;76.58;100229.44;5065363;28;45409;-90
2022/12/10 06:28:14;;;;;;;;;28.75;25.75;;;;;2.20;76.33;100223.34;5046372;28;44922;-90
2022/12/10 06:30:41;;;;;;;;;36.50;24.50;;;;;0.96;76.87;100001.59;5045337;28;47162;-91
2022/12/10 06:33:17;;;;;;;;;25.75;22.00;;;;;1.76;77.03;100133.44;5045073;28;45407;-91
2022/12/10 06:35:48;;;;;;;;;28.25;24.00;;;;;1.19;76.29;100038.25;5046146;28;45481;-90
2022/12/10 06:38:13;;;;;;;;;26.75;23.00;;;;;0.10;76.89;99854.16;5044274;28;45618;-90
2022/12/10 06:40:40;;;;;;;;;25.25;17.50;;;;;2.23;76.43;100246.81;5064355;28;45728;-91
2022/12/10 06:43:08;;;;;;;;;22.75;21.75;;;;;1.83;76.69;100160.41;5050007;28;45456;-90
2022/12/10 06:45:38;;;;;;;;;24.75;22.75;;;;;0.64;76.33;99963.97;5062902;28;45572;-90
2022/12/10 06:48:04;;;;;;;;;32.75;27.50;;;;;2.24;77.00;100248.56;5059907;28;45380;-90
2022/12/10 06:50:30;;;;;;;;;26.75;23.75;;;;;0.13;76.36;99877.59;5048962;28;47097;-89
2022/12/10 06:52:56;;;;;;;;;22.00;19.00;;;;;2.25;76.80;100237.28;5053377;28;45502;-89
2022/12/10 06:55:22;;;;;;;;;28.25;26.00;;;;;0.97;76.51;100014.63;5047693;28;45274;-89
2022/12/10 06:57:51;;;;;;;;;22.00;20.25;;;;;1.88;76.57;100205.66;5064422;28;45426;-89
2022/12/10 07:00:17;;;;;;;;;28.75;22.00;;;;;0.96;77.22;100025.03;5063764;28;47272;-89
2022/12/10 07:02:52;;;;;;;;;18.75;17.00;;;;;0.62;76.70;99980.41;5069574;28;45483;-90
2022/12/10 07:05:22;;;;;;;;;30.75;24.00;;;;;1.32;76.87;100105.22;5064419;28;45391;-90
2022/12/10 07:07:50;;;;;;;;;21.00;18.50;;;;;2.25;76.27;100268.56;5084569;28;45516;-91
2022/12/10 07:10:15;;;;;;;;;29.25;21.00;;;;;1.12;76.28;100060.75;5085268;28;48260;-91
2022/12/10 07:12:44;;;;;;;;;17.50;17.50;;;;;2.25;77.09;100272.91;5064777;28;45365;-90
2022/12/10 07:15:09;;;;;;;;;31.25;26.50;;;;;0.49;76.86;99962.06;5075888;28;45528;-90
2022/12/10 07:17:35;;;;;;;;;32.50;25.50;;;;;2.24;76.68;100265.94;5046186;28;45356;-89
2022/12/10 07:20:02;;;;;;;;;33.25;24.75;;;;;0.69;76.16;100009.09;5063972;28;48407;-90
2022/12/10 07:22:28;;;;;;;;;32.00;26.75;;;;;1.81;76.72;100187.31;5079673;28;45381;-88
2022/12/10 07:25:08;;;;;;;;;;;;;;;;;;;;;
2022/12/10 07:27:39;;;;;;;;;29.50;24.50;;;;;0.42;76.35;99968.03;5064448;28;69953;-90
2022/12/10 07:30:05;;;;;;;;;31.25;25.00;;;;;0.05;76.70;99905.22;5048715;28;48145;-91
2022/12/10 07:32:31;;;;;;;;;30.50;23.75;;;;;0.92;76.83;100057.06;5048794;28;45492;-91
2022/12/10 07:35:09;;;;;;;;;26.25;25.75;;;;;1.38;76.66;100151.28;5060679;28;45498;-91
2022/12/10 07:38:01;;;;;;;;;27.00;18.00;;;;;1.58;76.70;100164.53;5061434;28;45316;-90
2022/12/10 07:40:38;;;;;;;;;;;;;;;;;;;;;
2022/12/10 07:43:12;;;;;;;;;16.25;15.00;;;;;0.10;76.13;99913.94;5067482;28;72130;-92
2022/12/10 07:45:42;;;;;;;;;27.00;18.00;;;;;1.85;76.59;100229.06;5061685;28;45281;-93
2022/12/10 07:48:08;;;;;;;;;32.75;25.00;;;;;0.30;76.39;99965.31;5066477;28;45425;-93
2022/12/10 07:50:40;;;;;;;;;23.00;21.50;;;;;0.92;76.42;100067.47;5072593;28;46891;-92
2022/12/10 07:53:06;;;;;;;;;29.00;23.75;;;;;0.64;75.92;100022.94;5072613;28;44695;-93
2022/12/10 07:55:36;;;;;;;;;25.00;19.00;;;;;0.23;76.59;99955.69;5053767;28;44721;-92
2022/12/10 07:58:06;;;;;;;;;24.75;21.50;;;;;2.34;77.11;100316.44;5062877;28;45379;-94
2022/12/10 08:00:38;;;;;;;;;25.25;19.25;;;;;2.36;76.28;100310.41;5060105;28;47236;-94
2022/12/10 08:06:38;;;;;;;;;27.00;19.75;;;;;2.39;76.45;100330.44;5061092;28;45434;-90
2022/12/10 08:09:24;;;;;;;;;;;;;;;;;;;;;
2022/12/10 08:12:04;;;;;;;;;;;;;;;;;;;;;
2022/12/10 08:14:58;;;;;;;;;25.50;22.50;;;;;2.02;76.88;100225.75;5080432;28;72137;-89
2022/12/10 08:17:33;;;;;;;;;28.75;22.00;;;;;1.33;76.32;100119.13;5080809;28;45370;-91
2022/12/10 08:19:59;;;;;;;;;28.25;21.50;;;;;0.21;76.31;99936.59;5077795;28;45430;-90
2022/12/10 08:22:29;;;;;;;;;22.50;20.75;;;;;0.82;76.16;100036.16;5084840;28;48279;-89
2022/12/10 08:24:54;;;;;;;;;35.75;26.25;;;;;0.06;75.97;99924.28;5088367;28;44789;-91
2022/12/10 08:27:23;;;;;;;;;22.00;18.50;;;;;1.04;76.15;100062.41;5075498;28;44821;-91
2022/12/10 08:29:49;;;;;;;;;25.25;22.75;;;;;2.72;76.05;100353.34;5081235;28;45311;-90
2022/12/10 08:35:36;;;;;;;;;23.25;18.25;;;;;1.52;76.33;100134.06;5089266;28;45244;-93
2022/12/10 08:38:22;;;;;;;;;29.00;23.25;;;;;1.63;75.70;100134.19;5069662;28;44799;-93
2022/12/10 08:40:51;;;;;;;;;22.50;20.75;;;;;1.64;76.53;100159.38;5081444;28;45336;-92
2022/12/10 08:43:16;;;;;;;;;22.25;22.25;;;;;2.94;76.15;100351.78;5084498;28;46769;-90
2022/12/10 08:45:42;;;;;;;;;27.75;22.75;;;;;1.76;76.83;100154.28;5083537;28;45276;-90
2022/12/10 08:48:18;;;;;;;;;27.25;25.25;;;;;1.83;76.70;100136.09;5088037;28;45305;-92
2022/12/10 08:50:44;;;;;;;;;27.25;20.50;;;;;2.41;76.21;100235.66;5053037;28;45269;-90
2022/12/10 08:53:10;;;;;;;;;28.50;22.00;;;;;2.96;76.19;100310.91;5052498;28;47471;-90
2022/12/10 08:55:39;;;;;;;;;27.00;25.00;;;;;1.54;76.63;100085.47;5044811;28;45266;-88
2022/12/10 08:58:10;;;;;;;;;33.00;24.75;;;;;1.01;76.41;99976.47;5091327;28;44734;-90
2022/12/10 09:00:36;;;;;;;;;35.50;26.75;;;;;2.91;76.69;100267.34;5083701;28;45474;-90
2022/12/10 09:03:03;;;;;;;;;26.00;19.25;;;;;2.93;76.17;100287.38;5051439;28;47083;-89
2022/12/10 09:05:29;;;;;;;;;22.25;19.25;;;;;2.13;75.74;100138.06;5057041;28;45770;-90
2022/12/10 09:07:54;;;;;;;;;29.50;25.75;;;;;1.70;75.68;100062.13;5076649;28;45336;-89
2022/12/10 09:10:22;;;;;;;;;24.25;23.25;;;;;2.25;75.63;100161.63;5076812;28;45374;-90
2022/12/10 09:12:48;;;;;;;;;27.75;22.00;;;;;1.97;76.17;100095.34;5080958;28;46365;-87
2022/12/10 09:15:13;;;;;;;;;28.75;23.50;;;;;2.51;76.26;100181.81;5078480;28;45500;-88
2022/12/10 09:17:39;;;;;;;;;25.50;22.75;;;;;3.67;76.15;100384.44;5080680;28;45354;-88
2022/12/10 09:20:05;;;;;;;;;28.75;24.00;;;;;3.67;76.45;100387.06;5062760;28;45557;-89
2022/12/10 09:22:30;;;;;;;;;27.25;21.25;;;;;2.41;76.08;100185.22;5066733;28;48344;-89
2022/12/10 09:24:56;;;;;;;;;22.75;19.00;;;;;2.10;75.86;100104.16;5063682;28;45583;-89
2022/12/10 09:27:21;;;;;;;;;24.75;21.25;;;;;1.32;75.64;99968.91;5088622;28;44860;-90
2022/12/10 09:29:47;;;;;;;;;27.00;22.50;;;;;3.33;76.35;100336.38;5067261;28;45334;-91
2022/12/10 09:32:14;;;;;;;;;29.50;26.50;;;;;2.22;75.79;100114.66;5068703;28;47347;-90
2022/12/10 09:34:39;;;;;;;;;26.25;19.00;;;;;3.78;76.38;100361.00;5087600;28;45311;-90
2022/12/10 09:37:05;;;;;;;;;25.00;22.25;;;;;2.16;75.87;100083.34;5069869;28;45313;-90
2022/12/10 09:39:30;;;;;;;;;29.75;22.50;;;;;2.21;75.53;100086.84;5088524;28;45503;-90
2022/12/10 09:42:21;;;;;;;;;26.50;24.00;;;;;4.06;75.83;100376.78;5069153;28;46696;-90
2022/12/10 09:45:20;;;;;;;;;23.75;19.00;;;;;3.53;75.30;100279.84;5088987;28;44798;-92
2022/12/10 09:48:10;;;;;;;;;25.50;23.25;;;;;3.16;75.17;100179.56;5063153;28;45466;-91
2022/12/10 09:50:53;;;;;;;;;26.25;18.25;;;;;2.45;74.88;100046.13;5095051;28;45390;-92
2022/12/10 09:53:20;;;;;;;;;21.00;20.00;;;;;3.48;75.45;100221.47;5085555;28;47457;-88
2022/12/10 09:55:48;;;;;;;;;27.75;24.00;;;;;3.28;75.22;100147.34;5064344;28;45415;-89
2022/12/10 09:58:19;;;;;;;;;27.75;24.75;;;;;4.08;74.84;100281.78;5072596;28;45330;-90
2022/12/10 10:00:48;;;;;;;;;28.25;21.25;;;;;4.70;75.16;100386.53;5072939;28;44826;-90
2022/12/10 10:03:16;;;;;;;;;26.25;22.50;;;;;3.62;74.81;100179.69;5096832;27;48048;-89
2022/12/10 10:05:46;;;;;;;;;30.50;28.50;;;;;4.36;74.61;100266.09;5055880;28;45525;-89
2022/12/10 10:08:22;;;;;;;;;28.00;21.00;;;;;4.09;74.90;100202.41;5067961;28;45313;-88
2022/12/10 10:10:48;;;;;;;;;19.75;17.00;;;;;4.74;74.08;100278.31;5070914;28;45556;-89
2022/12/10 10:13:31;;;;;;;;;21.00;21.00;;;;;5.46;74.74;100413.56;5057720;28;47589;-89
2022/12/10 10:16:29;;;;;;;;;25.75;24.50;;;;;4.75;74.00;100264.34;5080955;28;45382;-91
2022/12/10 10:19:13;;;;;;;;;22.25;20.00;;;;;5.59;74.14;100385.59;5069770;28;45415;-91
2022/12/10 10:21:47;;;;;;;;;30.25;25.75;;;;;5.64;74.52;100385.59;5053606;28;45569;-91
2022/12/10 10:24:18;;;;;;;;;32.50;27.25;;;;;4.55;73.60;100203.25;5087589;27;46769;-90
2022/12/10 10:26:45;;;;;;;;;29.50;25.25;;;;;5.33;74.15;100317.50;5061874;28;45469;-92
2022/12/10 10:29:17;;;;;;;;;24.25;18.25;;;;;4.60;74.37;100180.56;5063351;28;45351;-91
2022/12/10 10:31:47;;;;;;;;;29.00;27.00;;;;;5.38;74.11;100309.63;5084500;28;44920;-89
2022/12/10 10:34:26;;;;;;;;;34.75;25.75;;;;;4.65;74.27;100173.59;5066088;28;47221;-89
2022/12/10 10:36:57;;;;;;;;;32.75;28.50;;;;;4.89;73.58;100192.72;5073345;28;45350;-91
2022/12/10 10:39:36;;;;;;;;;40.75;32.00;;;;;6.27;73.78;100398.50;5054126;28;45518;-91
2022/12/10 10:45:36;;;;;;;;;27.25;26.25;;;;;7.07;72.48;100378.69;5060211;28;45828;-90
2022/12/10 10:48:23;;;;;;;;;31.50;26.75;;;;;7.46;72.36;100377.41;5071287;28;45420;-91
2022/12/10 10:50:55;;;;;;;;;31.75;25.25;;;;;6.68;71.98;100208.25;5062837;28;45050;-91
2022/12/10 10:53:42;;;;;;;;;28.25;24.75;;;;;7.16;72.37;100244.53;5051568;28;45421;-91
2022/12/10 10:56:23;;;;;;;;;28.00;26.50;;;;;7.72;71.89;100314.91;5062076;28;46216;-93
2022/12/10 10:59:12;;;;;;;;;34.50;31.00;;;;;7.86;72.07;100323.47;5060738;28;45425;-92
2022/12/10 11:01:56;;;;;;;;;28.75;25.00;;;;;7.73;71.64;100287.69;5059149;28;45461;-91
2022/12/10 11:04:36;;;;;;;;;30.00;25.75;;;;;8.57;71.60;100396.28;5051665;28;45403;-90
2022/12/10 11:07:05;;;;;;;;;23.75;22.25;;;;;7.25;71.23;100162.94;5056441;28;45372;-90
2022/12/10 11:09:33;;;;;;;;;28.25;23.25;;;;;8.32;71.58;100346.56;5065568;28;45492;-91
2022/12/10 11:12:02;;;;;;;;;30.00;25.75;;;;;7.36;71.12;100175.06;5055060;28;45328;-90
2022/12/10 11:14:46;;;;;;;;;27.75;27.00;;;;;8.19;71.70;100329.19;5079425;28;44913;-92
2022/12/10 11:17:15;;;;;;;;;31.00;26.50;;;;;8.52;71.45;100395.47;5061332;28;47289;-88
2022/12/10 11:20:04;;;;;;;;;26.25;21.50;;;;;7.86;71.86;100305.06;5063656;28;45231;-90
2022/12/10 11:22:33;;;;;;;;;24.75;22.75;;;;;8.43;71.75;100364.84;5042989;28;45317;-91
2022/12/10 11:25:00;;;;;;;;;27.25;27.25;;;;;8.76;71.42;100396.00;5078528;28;45506;-92
2022/12/10 11:27:45;;;;;;;;;26.50;23.00;;;;;8.77;71.55;100387.19;5066446;28;46757;-92
2022/12/10 11:30:23;;;;;;;;;28.50;25.50;;;;;8.75;71.01;100402.19;5066508;28;45386;-92
2022/12/10 11:33:41;;;;;;;;;49.50;37.25;;;;;8.81;71.07;100379.22;5064278;28;45380;-91
2022/12/10 11:36:40;;;;;;;;;29.50;23.25;;;;;9.12;71.11;100370.78;4980456;28;45268;-90
2022/12/10 11:39:17;;;;;;;;;26.75;24.75;;;;;8.85;69.77;100233.31;4934349;28;47012;-90
2022/12/10 11:42:15;;;;;;;;;27.75;23.75;;;;;10.29;69.27;100360.59;4947106;28;45561;-91
2022/12/10 11:45:10;;;;;;;;;22.50;20.75;;;;;10.00;68.73;100216.00;4948555;28;45359;-89
2022/12/10 11:47:45;;;;;;;;;27.75;24.50;;;;;11.30;66.38;100308.81;4871967;29;45451;-91
2022/12/10 11:50:22;;;;;;;;;25.00;21.00;;;;;11.79;66.41;100303.03;4883985;29;47293;-91
2022/12/10 11:52:58;;;;;;;;;29.00;23.25;;;;;11.97;65.94;100267.25;4888596;29;45508;-90
2022/12/10 11:55:43;;;;;;;;;27.75;22.50;;;;;12.18;65.94;100199.47;4878428;29;45551;-91
2022/12/10 11:58:45;;;;;;;;;28.50;21.75;;;;;13.62;65.55;100366.09;4884158;29;45455;-89
2022/12/10 12:01:34;;;;;;;;;18.75;15.75;;;;;14.14;65.35;100368.63;4885743;29;46351;-91
2022/12/10 12:04:44;;;;;;;;;28.50;23.25;;;;;14.69;64.94;100378.06;4886137;29;45383;-90
2022/12/10 12:07:39;;;;;;;;;23.00;22.00;;;;;14.55;64.27;100257.09;4851136;29;45495;-91
2022/12/10 12:10:32;;;;;;;;;23.50;21.25;;;;;15.09;63.44;100276.16;4833598;29;45423;-91
2022/12/10 12:13:19;;;;;;;;;24.75;20.25;;;;;16.18;62.96;100360.09;4902940;28;47772;-91
2022/12/10 12:16:22;;;;;;;;;19.25;13.75;;;;;15.95;62.92;100262.56;4911666;28;44845;-91
2022/12/10 12:40:09;;;;;;;;;26.00;22.25;;;;;17.76;62.75;100291.69;4941796;28;44981;-94
2022/12/10 12:45:58;;;;;;;;;21.00;17.00;;;;;16.68;61.99;100095.34;4847053;29;44993;-95
2022/12/10 12:49:20;;;;;;;;;;;;;;;;;;;;;